Terminal Aerodrome Forecast
Issued by NWS Wilmington, OH

Current Version | Previous Version | Text Only | Print | Product List | Glossary On
Versions: 1 2 3 4 5 6 7 8 9 10 11 12 13 14 15 16 17 18 19 20
000 FTUS41 KILN 170700 AAA TAFILN TAF AMD KILN 170703Z 1707/1806 00000KT 1SM BR SKC TEMPO 1708/1712 1/4SM FG VV001 FM171200 00000KT 2SM BR SCT001 FM171300 VRB03KT P6SM SCT030 FM171800 26004KT P6SM SCT035 BKN120 FM172300 35004KT P6SM BKN100=

USA.gov is the U.S. government's official web portal to all federal, state and local government web resources and services.